Pays
Station

 

Conditions  météo  pour  Jijel Achouat  -  Algérie    Algérie

  
19 °C
    
 
 

METAR pour Jijel Achouat :

DAAV 200100Z 15002KT 9999 FEW020 19/17 Q1018

 

Voici le bulletin pour Jijel Achouat - Algérie.
 
Le bulletin a été fait il y a une heure et 6 minutes, à 01:00 UTC .
Le vent soufflait à la vitesse de 1.0 mètres par seconde de Sud/Sud-est (150°).
 
La température était de 19 °C, avec un point de rosée à 17 °C.
La pression atmosphérique était de 1018 hPa.
L'humidité relative était de 88.2%.
 
Il y avait 1 à 2/8ème de nébulosité à une hauteur de 610 mètres.
 
La visibilité globale était de supérieure à 10 kilomètres.
 

 
 
 

Pays :   A   B   C   D   E   F   G   H   I   J   K   L   M   N   O   P   Q   R   S   T   U   V   W   Y   Z

 

Partenaires :  Info Météo avec Met'info
Météo Marine avec MeteoMarine.net
Infos Site  |  Infos Légales  |  Crédits  |  Confidentialité
Contactez-nous  |  Ajouter aux favoris
© 2013-2018 METAR - Tous droits réservés